»·PEaware :: N188MZ KLXV-KGJT

N188MZ :: KLXV-KGJT

FLIGHT INFORMATION

Flight Status: Arrived
Operator: Privately registered:
United States
More flights under this callsign
Pilot: Anonymous 12234 (12234)
Aircraft: CESSNA 172 SKYHAWK
(C172)
More flights by this aircraft type
Origin: KLXV Lake Co
United States
Destination: KGJT Walker
United States
More flights between these airports :: More routes between these airports
Route: FIDLE SXW RIL
File this flight plan on PilotEdge
Remarks:
Altitude:
(Current/Filed)
12,500ft
Speed:
(Current/Filed)
105kts
Departed: 11-Nov-17 01:39 PM
Arrived: 11-Nov-17 03:10 PM
Distance/Time
Traveled:
103nm/1:31
Distance/Time
To Go:
Arrived

Flight Plot

Page will automatically refresh every two minutes.

Flight plan parsing failed; only flown route is shown


Map Options




Map Legend


Flown Route
Filed Route
Departure Airport
Arrival Airport
Navaid (VOR, NDB)
Fix

Horizontal Profiles

Position Reports

Time Latitude Longitude Heading Altitude Ground
Speed
11-Nov-17 13:30 39.224692 -106.316045 252 9930ft 0kts
11-Nov-17 13:31 39.224692 -106.316045 252 9930ft 0kts
11-Nov-17 13:32 39.224692 -106.316045 252 9930ft 0kts
11-Nov-17 13:33 39.224625 -106.316258 243 9930ft 4kts
11-Nov-17 13:34 39.224678 -106.316460 331 9930ft 0kts
11-Nov-17 13:35 39.224677 -106.316460 331 9930ft 0kts
11-Nov-17 13:36 39.224677 -106.316460 331 9930ft 0kts
11-Nov-17 13:37 39.224677 -106.316460 331 9930ft 0kts
11-Nov-17 13:38 39.224777 -106.316525 331 9930ft 2kts
11-Nov-17 13:39 39.224849 -106.316965 261 9930ft 3kts
11-Nov-17 13:40 39.221156 -106.316810 171 9930ft 21kts
11-Nov-17 13:41 39.214910 -106.315418 170 9930ft 23kts
11-Nov-17 13:42 39.211089 -106.314623 352 9930ft 0kts
11-Nov-17 13:43 39.211089 -106.314623 352 9930ft 0kts
11-Nov-17 13:44 39.216780 -106.315822 350 9970ft 59kts
11-Nov-17 13:45 39.233838 -106.318465 351 10343ft 71kts
11-Nov-17 13:46 39.255584 -106.320110 348 10683ft 85kts
11-Nov-17 13:47 39.280116 -106.322694 346 11035ft 88kts
11-Nov-17 13:48 39.304352 -106.324051 346 11432ft 86kts
11-Nov-17 13:49 39.328242 -106.324648 346 11815ft 85kts
11-Nov-17 13:50 39.351880 -106.324531 346 12200ft 85kts
11-Nov-17 13:51 39.375380 -106.324062 343 12502ft 90kts
11-Nov-17 13:52 39.402124 -106.326529 343 12490ft 98kts
11-Nov-17 13:53 39.429428 -106.329419 343 12489ft 99kts
11-Nov-17 13:54 39.456903 -106.332420 343 12489ft 99kts
11-Nov-17 13:55 39.479417 -106.347396 320 12489ft 91kts
11-Nov-17 13:56 39.501132 -106.364095 320 12489ft 91kts
11-Nov-17 13:57 39.522880 -106.380898 320 12489ft 91kts
11-Nov-17 13:58 39.544473 -106.397661 320 12489ft 90kts
11-Nov-17 13:59 39.566079 -106.414533 320 12489ft 90kts
11-Nov-17 14:00 39.587573 -106.431403 320 12489ft 90kts
11-Nov-17 14:01 39.606296 -106.451036 289 12488ft 84kts
11-Nov-17 14:02 39.614106 -106.479883 288 12489ft 85kts
11-Nov-17 14:03 39.621838 -106.508839 288 12488ft 85kts
11-Nov-17 14:04 39.629505 -106.537764 288 12488ft 85kts
11-Nov-17 14:05 39.637199 -106.566614 288 12490ft 84kts
11-Nov-17 14:06 39.645699 -106.595013 288 12487ft 84kts
11-Nov-17 14:07 39.654822 -106.622672 288 12497ft 84kts
11-Nov-17 14:08 39.652430 -106.651397 258 12498ft 82kts
11-Nov-17 14:09 39.647636 -106.678663 258 12502ft 84kts
11-Nov-17 14:10 39.642400 -106.708370 258 12502ft 84kts
11-Nov-17 14:11 39.637135 -106.738129 258 12501ft 84kts
11-Nov-17 14:12 39.632167 -106.768053 258 12501ft 85kts
11-Nov-17 14:13 39.627708 -106.798267 258 12501ft 85kts
11-Nov-17 14:14 39.623217 -106.828641 258 12501ft 85kts
11-Nov-17 14:15 39.618758 -106.858745 258 12501ft 85kts
11-Nov-17 14:16 39.614274 -106.888960 258 12501ft 85kts
11-Nov-17 14:17 39.608320 -106.918725 251 12500ft 85kts
11-Nov-17 14:18 39.600280 -106.947561 251 12500ft 85kts
11-Nov-17 14:19 39.592192 -106.976522 251 12500ft 85kts
11-Nov-17 14:20 39.584121 -107.005376 251 12500ft 85kts
11-Nov-17 14:21 39.577413 -107.029364 252 12500ft 85kts
11-Nov-17 14:22 39.576391 -107.065121 266 12500ft 85kts
11-Nov-17 14:23 39.574505 -107.095593 255 12500ft 85kts
11-Nov-17 14:24 39.568622 -107.120000 251 12499ft 85kts
11-Nov-17 14:25 39.560264 -107.148677 251 12499ft 85kts
11-Nov-17 14:26 39.552254 -107.175938 251 12619ft 80kts
11-Nov-17 14:27 39.544123 -107.203656 251 12628ft 83kts
11-Nov-17 14:28 39.535795 -107.232112 251 12627ft 84kts
11-Nov-17 14:29 39.527286 -107.260506 251 12627ft 84kts
11-Nov-17 14:30 39.518281 -107.288168 251 12626ft 83kts
11-Nov-17 14:31 39.509374 -107.315446 251 12626ft 82kts
11-Nov-17 14:32 39.503581 -107.343660 266 12627ft 81kts
11-Nov-17 14:33 39.502827 -107.372942 267 12626ft 81kts
11-Nov-17 14:34 39.502106 -107.402076 267 12626ft 81kts
11-Nov-17 14:35 39.501396 -107.430747 267 12626ft 81kts
11-Nov-17 14:36 39.500703 -107.458651 267 12625ft 81kts
11-Nov-17 14:37 39.499978 -107.487787 267 12625ft 81kts
11-Nov-17 14:38 39.499254 -107.516858 267 12625ft 81kts
11-Nov-17 14:39 39.498526 -107.545981 267 12625ft 80kts
11-Nov-17 14:40 39.497746 -107.576747 267 12474ft 90kts
11-Nov-17 14:41 39.496947 -107.608078 267 12468ft 84kts
11-Nov-17 14:42 39.496211 -107.637453 267 12496ft 80kts
11-Nov-17 14:43 39.495447 -107.666349 267 12502ft 82kts
11-Nov-17 14:44 39.494616 -107.696135 267 12502ft 83kts
11-Nov-17 14:45 39.492523 -107.725794 256 12500ft 83kts
11-Nov-17 14:46 39.485395 -107.754623 255 12497ft 85kts
11-Nov-17 14:47 39.478214 -107.784789 255 12501ft 89kts
11-Nov-17 14:48 39.470864 -107.815928 255 12501ft 90kts
11-Nov-17 14:49 39.463492 -107.847182 255 12500ft 91kts
11-Nov-17 14:50 39.456110 -107.878473 255 12500ft 91kts
11-Nov-17 14:51 39.448710 -107.909839 255 12500ft 91kts
11-Nov-17 14:52 39.441307 -107.941205 255 12500ft 91kts
11-Nov-17 14:53 39.433926 -107.972468 255 12500ft 91kts
11-Nov-17 14:54 39.424515 -108.002556 237 12500ft 93kts
11-Nov-17 14:55 39.408456 -108.028884 237 12500ft 93kts
11-Nov-17 14:56 39.392454 -108.055102 237 12500ft 93kts
11-Nov-17 14:57 39.376801 -108.081801 239 12500ft 92kts
11-Nov-17 14:58 39.361660 -108.108757 239 12499ft 92kts
11-Nov-17 14:59 39.346544 -108.135650 239 12499ft 92kts
11-Nov-17 15:00 39.330434 -108.164854 238 12060ft 105kts
11-Nov-17 15:01 39.304316 -108.185374 215 11558ft 111kts
11-Nov-17 15:02 39.277261 -108.205072 215 11055ft 112kts
11-Nov-17 15:03 39.250227 -108.225313 215 10550ft 113kts
11-Nov-17 15:04 39.222746 -108.246453 215 10046ft 117kts
11-Nov-17 15:05 39.194773 -108.267709 215 9547ft 116kts
11-Nov-17 15:06 39.166991 -108.289067 215 9043ft 117kts
11-Nov-17 15:07 39.138970 -108.310334 215 8540ft 116kts
11-Nov-17 15:08 39.112930 -108.334152 232 7801ft 111kts
11-Nov-17 15:09 39.102250 -108.368876 250 7297ft 104kts
11-Nov-17 15:10 39.090151 -108.401996 249 6926ft 102kts
11-Nov-17 15:11 39.082536 -108.436446 274 6444ft 97kts
11-Nov-17 15:12 39.092690 -108.468013 307 5830ft 92kts
11-Nov-17 15:13 39.106942 -108.493259 305 5306ft 80kts
11-Nov-17 15:14 39.118613 -108.514547 305 4886ft 67kts
11-Nov-17 15:15 39.122210 -108.523373 151 4861ft 9kts
11-Nov-17 15:16 39.120728 -108.523084 130 4861ft 0kts

Navigation Log

Ident Type
Flight plan parsing failed, navigation log unavailable